sensor_id;sensor_type;location;lat;lon;timestamp;P1;durP1;ratioP1;P2;durP2;ratioP2
26530;SDS011;14201;43.188;24.160;2023-03-12T00:01:33;14.23;;;2.30;;
26530;SDS011;14201;43.188;24.160;2023-03-12T00:04:02;9.13;;;2.53;;
26530;SDS011;14201;43.188;24.160;2023-03-12T00:06:27;8.15;;;2.10;;
26530;SDS011;14201;43.188;24.160;2023-03-12T00:08:53;13.80;;;2.28;;
26530;SDS011;14201;43.188;24.160;2023-03-12T00:11:19;14.65;;;2.45;;
26530;SDS011;14201;43.188;24.160;2023-03-12T00:13:51;7.15;;;2.47;;
26530;SDS011;14201;43.188;24.160;2023-03-12T00:16:19;7.43;;;2.33;;
26530;SDS011;14201;43.188;24.160;2023-03-12T00:18:46;9.38;;;2.33;;
26530;SDS011;14201;43.188;24.160;2023-03-12T00:21:13;7.90;;;2.38;;
26530;SDS011;14201;43.188;24.160;2023-03-12T00:23:39;10.82;;;2.50;;
26530;SDS011;14201;43.188;24.160;2023-03-12T00:26:05;9.23;;;2.20;;
26530;SDS011;14201;43.188;24.160;2023-03-12T00:28:33;10.65;;;2.47;;
26530;SDS011;14201;43.188;24.160;2023-03-12T00:31:00;8.88;;;2.50;;
26530;SDS011;14201;43.188;24.160;2023-03-12T00:33:26;13.02;;;2.63;;
26530;SDS011;14201;43.188;24.160;2023-03-12T00:35:53;4.57;;;2.40;;
26530;SDS011;14201;43.188;24.160;2023-03-12T00:38:20;14.50;;;2.63;;
26530;SDS011;14201;43.188;24.160;2023-03-12T00:40:46;8.75;;;2.53;;
26530;SDS011;14201;43.188;24.160;2023-03-12T00:43:12;5.63;;;2.58;;
26530;SDS011;14201;43.188;24.160;2023-03-12T00:45:38;12.05;;;2.72;;
26530;SDS011;14201;43.188;24.160;2023-03-12T00:48:03;6.68;;;2.40;;
26530;SDS011;14201;43.188;24.160;2023-03-12T00:50:29;8.15;;;2.53;;
26530;SDS011;14201;43.188;24.160;2023-03-12T00:52:55;9.45;;;2.50;;
26530;SDS011;14201;43.188;24.160;2023-03-12T00:55:21;5.68;;;2.03;;
26530;SDS011;14201;43.188;24.160;2023-03-12T00:57:46;9.98;;;2.53;;
26530;SDS011;14201;43.188;24.160;2023-03-12T01:00:12;6.50;;;2.30;;
26530;SDS011;14201;43.188;24.160;2023-03-12T01:02:38;5.93;;;2.30;;
26530;SDS011;14201;43.188;24.160;2023-03-12T01:05:04;5.43;;;2.25;;
26530;SDS011;14201;43.188;24.160;2023-03-12T01:07:32;10.95;;;2.45;;
26530;SDS011;14201;43.188;24.160;2023-03-12T01:09:59;9.10;;;2.20;;
26530;SDS011;14201;43.188;24.160;2023-03-12T01:12:25;9.27;;;2.40;;
26530;SDS011;14201;43.188;24.160;2023-03-12T01:14:51;5.40;;;2.22;;
26530;SDS011;14201;43.188;24.160;2023-03-12T01:17:16;5.15;;;2.47;;
26530;SDS011;14201;43.188;24.160;2023-03-12T01:19:42;7.47;;;2.30;;
26530;SDS011;14201;43.188;24.160;2023-03-12T01:22:07;3.33;;;2.20;;
26530;SDS011;14201;43.188;24.160;2023-03-12T01:24:33;4.47;;;2.47;;
26530;SDS011;14201;43.188;24.160;2023-03-12T01:26:58;6.13;;;2.10;;
26530;SDS011;14201;43.188;24.160;2023-03-12T01:29:24;7.88;;;2.67;;
26530;SDS011;14201;43.188;24.160;2023-03-12T01:31:50;5.72;;;2.45;;
26530;SDS011;14201;43.188;24.160;2023-03-12T01:34:16;4.03;;;2.15;;
26530;SDS011;14201;43.188;24.160;2023-03-12T01:36:41;8.20;;;2.67;;
26530;SDS011;14201;43.188;24.160;2023-03-12T01:39:09;6.78;;;2.30;;
26530;SDS011;14201;43.188;24.160;2023-03-12T01:41:35;6.05;;;2.33;;
26530;SDS011;14201;43.188;24.160;2023-03-12T01:44:01;7.10;;;2.30;;
26530;SDS011;14201;43.188;24.160;2023-03-12T01:48:59;3.78;;;2.05;;
26530;SDS011;14201;43.188;24.160;2023-03-12T01:51:28;4.82;;;2.50;;
26530;SDS011;14201;43.188;24.160;2023-03-12T01:53:58;6.45;;;2.13;;
26530;SDS011;14201;43.188;24.160;2023-03-12T01:56:27;3.05;;;2.13;;
26530;SDS011;14201;43.188;24.160;2023-03-12T01:58:58;10.00;;;2.00;;
26530;SDS011;14201;43.188;24.160;2023-03-12T02:01:27;3.63;;;1.85;;
26530;SDS011;14201;43.188;24.160;2023-03-12T02:03:53;6.47;;;2.40;;
26530;SDS011;14201;43.188;24.160;2023-03-12T02:06:24;4.15;;;2.08;;
26530;SDS011;14201;43.188;24.160;2023-03-12T02:08:55;4.43;;;1.92;;
26530;SDS011;14201;43.188;24.160;2023-03-12T02:11:23;7.60;;;2.00;;
26530;SDS011;14201;43.188;24.160;2023-03-12T02:13:49;6.55;;;2.30;;
26530;SDS011;14201;43.188;24.160;2023-03-12T02:16:14;3.83;;;2.00;;
26530;SDS011;14201;43.188;24.160;2023-03-12T02:18:40;4.70;;;1.95;;
26530;SDS011;14201;43.188;24.160;2023-03-12T02:21:15;5.95;;;2.17;;
26530;SDS011;14201;43.188;24.160;2023-03-12T02:26:13;6.85;;;2.05;;
26530;SDS011;14201;43.188;24.160;2023-03-12T02:28:40;5.47;;;2.10;;
26530;SDS011;14201;43.188;24.160;2023-03-12T02:31:09;7.60;;;2.08;;
26530;SDS011;14201;43.188;24.160;2023-03-12T02:33:48;9.02;;;1.90;;
26530;SDS011;14201;43.188;24.160;2023-03-12T02:36:13;5.97;;;1.95;;
26530;SDS011;14201;43.188;24.160;2023-03-12T02:43:59;5.15;;;2.00;;
26530;SDS011;14201;43.188;24.160;2023-03-12T02:46:26;5.78;;;2.10;;
26530;SDS011;14201;43.188;24.160;2023-03-12T02:48:53;3.78;;;2.00;;
26530;SDS011;14201;43.188;24.160;2023-03-12T02:51:20;8.13;;;2.10;;
26530;SDS011;14201;43.188;24.160;2023-03-12T02:53:45;4.57;;;2.05;;
26530;SDS011;14201;43.188;24.160;2023-03-12T02:56:11;6.38;;;1.85;;
26530;SDS011;14201;43.188;24.160;2023-03-12T02:58:36;7.93;;;2.10;;
26530;SDS011;14201;43.188;24.160;2023-03-12T03:01:02;6.80;;;1.73;;
26530;SDS011;14201;43.188;24.160;2023-03-12T03:03:28;6.10;;;2.20;;
26530;SDS011;14201;43.188;24.160;2023-03-12T03:05:53;6.82;;;1.85;;
26530;SDS011;14201;43.188;24.160;2023-03-12T03:08:19;10.20;;;2.20;;
26530;SDS011;14201;43.188;24.160;2023-03-12T03:10:45;6.47;;;1.70;;
26530;SDS011;14201;43.188;24.160;2023-03-12T03:13:10;5.78;;;2.10;;
26530;SDS011;14201;43.188;24.160;2023-03-12T03:15:36;4.53;;;2.05;;
26530;SDS011;14201;43.188;24.160;2023-03-12T03:18:03;7.15;;;1.90;;
26530;SDS011;14201;43.188;24.160;2023-03-12T03:20:29;10.02;;;1.90;;
26530;SDS011;14201;43.188;24.160;2023-03-12T03:22:55;4.07;;;2.15;;
26530;SDS011;14201;43.188;24.160;2023-03-12T03:25:21;8.80;;;2.10;;
26530;SDS011;14201;43.188;24.160;2023-03-12T03:27:47;7.28;;;2.05;;
26530;SDS011;14201;43.188;24.160;2023-03-12T03:30:13;12.02;;;2.58;;
26530;SDS011;14201;43.188;24.160;2023-03-12T03:32:40;7.72;;;2.10;;
26530;SDS011;14201;43.188;24.160;2023-03-12T03:35:06;10.73;;;2.47;;
26530;SDS011;14201;43.188;24.160;2023-03-12T03:37:32;7.75;;;2.33;;
26530;SDS011;14201;43.188;24.160;2023-03-12T03:39:58;7.03;;;2.10;;
26530;SDS011;14201;43.188;24.160;2023-03-12T03:42:23;6.72;;;2.10;;
26530;SDS011;14201;43.188;24.160;2023-03-12T03:44:49;6.22;;;2.35;;
26530;SDS011;14201;43.188;24.160;2023-03-12T03:47:14;5.68;;;2.40;;
26530;SDS011;14201;43.188;24.160;2023-03-12T03:49:40;7.15;;;2.10;;
26530;SDS011;14201;43.188;24.160;2023-03-12T03:52:06;5.47;;;2.00;;
26530;SDS011;14201;43.188;24.160;2023-03-12T03:54:31;5.43;;;2.10;;
26530;SDS011;14201;43.188;24.160;2023-03-12T03:56:58;4.05;;;2.15;;
26530;SDS011;14201;43.188;24.160;2023-03-12T03:59:24;12.85;;;2.40;;
26530;SDS011;14201;43.188;24.160;2023-03-12T04:01:50;9.70;;;2.25;;
26530;SDS011;14201;43.188;24.160;2023-03-12T04:04:16;2.75;;;2.10;;
26530;SDS011;14201;43.188;24.160;2023-03-12T04:06:42;4.95;;;2.13;;
26530;SDS011;14201;43.188;24.160;2023-03-12T04:09:07;5.50;;;2.13;;
26530;SDS011;14201;43.188;24.160;2023-03-12T04:11:33;4.78;;;2.10;;
26530;SDS011;14201;43.188;24.160;2023-03-12T04:13:59;4.63;;;2.20;;
26530;SDS011;14201;43.188;24.160;2023-03-12T04:16:27;4.75;;;2.35;;
26530;SDS011;14201;43.188;24.160;2023-03-12T04:18:53;6.93;;;2.10;;
26530;SDS011;14201;43.188;24.160;2023-03-12T04:21:18;5.32;;;1.90;;
26530;SDS011;14201;43.188;24.160;2023-03-12T04:23:44;4.97;;;1.95;;
26530;SDS011;14201;43.188;24.160;2023-03-12T04:26:10;5.28;;;2.50;;
26530;SDS011;14201;43.188;24.160;2023-03-12T04:28:36;7.60;;;2.45;;
26530;SDS011;14201;43.188;24.160;2023-03-12T04:31:03;4.20;;;2.30;;
26530;SDS011;14201;43.188;24.160;2023-03-12T04:33:32;7.55;;;2.10;;
26530;SDS011;14201;43.188;24.160;2023-03-12T04:35:59;3.65;;;2.10;;
26530;SDS011;14201;43.188;24.160;2023-03-12T04:38:25;4.32;;;2.30;;
26530;SDS011;14201;43.188;24.160;2023-03-12T04:40:57;6.18;;;2.30;;
26530;SDS011;14201;43.188;24.160;2023-03-12T04:43:24;5.22;;;2.28;;
26530;SDS011;14201;43.188;24.160;2023-03-12T04:45:50;5.43;;;2.40;;
26530;SDS011;14201;43.188;24.160;2023-03-12T04:48:15;3.25;;;2.15;;
26530;SDS011;14201;43.188;24.160;2023-03-12T04:50:41;5.65;;;2.08;;
26530;SDS011;14201;43.188;24.160;2023-03-12T04:53:07;4.25;;;2.45;;
26530;SDS011;14201;43.188;24.160;2023-03-12T04:55:33;6.65;;;2.38;;
26530;SDS011;14201;43.188;24.160;2023-03-12T04:57:58;5.18;;;2.42;;
26530;SDS011;14201;43.188;24.160;2023-03-12T05:00:24;3.72;;;2.13;;
26530;SDS011;14201;43.188;24.160;2023-03-12T05:02:51;3.42;;;2.20;;
26530;SDS011;14201;43.188;24.160;2023-03-12T05:05:17;3.03;;;2.22;;
26530;SDS011;14201;43.188;24.160;2023-03-12T05:07:43;2.85;;;2.53;;
26530;SDS011;14201;43.188;24.160;2023-03-12T05:10:09;3.58;;;2.50;;
26530;SDS011;14201;43.188;24.160;2023-03-12T05:12:35;4.03;;;2.53;;
26530;SDS011;14201;43.188;24.160;2023-03-12T05:15:00;5.50;;;2.67;;
26530;SDS011;14201;43.188;24.160;2023-03-12T05:17:27;3.83;;;2.60;;
26530;SDS011;14201;43.188;24.160;2023-03-12T05:19:53;3.38;;;2.50;;
26530;SDS011;14201;43.188;24.160;2023-03-12T05:22:19;3.22;;;2.53;;
26530;SDS011;14201;43.188;24.160;2023-03-12T05:24:44;5.40;;;2.70;;
26530;SDS011;14201;43.188;24.160;2023-03-12T05:27:10;4.30;;;2.95;;
26530;SDS011;14201;43.188;24.160;2023-03-12T05:29:36;4.82;;;2.67;;
26530;SDS011;14201;43.188;24.160;2023-03-12T05:32:02;4.68;;;2.70;;
26530;SDS011;14201;43.188;24.160;2023-03-12T05:34:28;11.13;;;2.90;;
26530;SDS011;14201;43.188;24.160;2023-03-12T06:33:12;3.83;;;2.85;;
26530;SDS011;14201;43.188;24.160;2023-03-12T06:35:38;7.30;;;3.17;;
26530;SDS011;14201;43.188;24.160;2023-03-12T06:38:04;6.55;;;3.22;;
26530;SDS011;14201;43.188;24.160;2023-03-12T06:40:29;4.47;;;3.10;;
26530;SDS011;14201;43.188;24.160;2023-03-12T06:42:55;8.98;;;3.05;;
26530;SDS011;14201;43.188;24.160;2023-03-12T06:45:20;4.97;;;2.80;;
26530;SDS011;14201;43.188;24.160;2023-03-12T06:47:46;3.55;;;2.90;;
26530;SDS011;14201;43.188;24.160;2023-03-12T06:50:11;6.15;;;3.15;;
26530;SDS011;14201;43.188;24.160;2023-03-12T06:52:37;3.85;;;2.75;;
26530;SDS011;14201;43.188;24.160;2023-03-12T06:55:04;3.30;;;2.80;;
26530;SDS011;14201;43.188;24.160;2023-03-12T06:57:30;4.85;;;2.83;;
26530;SDS011;14201;43.188;24.160;2023-03-12T06:59:56;3.03;;;2.50;;
26530;SDS011;14201;43.188;24.160;2023-03-12T07:02:21;3.90;;;2.55;;
26530;SDS011;14201;43.188;24.160;2023-03-12T07:04:47;5.95;;;3.03;;
26530;SDS011;14201;43.188;24.160;2023-03-12T07:07:13;4.13;;;2.92;;
26530;SDS011;14201;43.188;24.160;2023-03-12T07:09:39;4.10;;;2.75;;
26530;SDS011;14201;43.188;24.160;2023-03-12T07:12:05;4.32;;;2.67;;
26530;SDS011;14201;43.188;24.160;2023-03-12T07:14:31;5.68;;;2.70;;
26530;SDS011;14201;43.188;24.160;2023-03-12T07:16:56;4.85;;;3.05;;
26530;SDS011;14201;43.188;24.160;2023-03-12T07:19:23;3.25;;;2.53;;
26530;SDS011;14201;43.188;24.160;2023-03-12T07:21:48;4.13;;;2.45;;
26530;SDS011;14201;43.188;24.160;2023-03-12T07:24:14;3.35;;;2.63;;
26530;SDS011;14201;43.188;24.160;2023-03-12T07:26:39;3.30;;;2.40;;
26530;SDS011;14201;43.188;24.160;2023-03-12T07:29:05;3.20;;;2.38;;
26530;SDS011;14201;43.188;24.160;2023-03-12T07:31:30;2.75;;;2.17;;
26530;SDS011;14201;43.188;24.160;2023-03-12T07:33:56;2.92;;;2.50;;
26530;SDS011;14201;43.188;24.160;2023-03-12T07:36:22;3.85;;;2.90;;
26530;SDS011;14201;43.188;24.160;2023-03-12T07:38:48;3.45;;;2.20;;
26530;SDS011;14201;43.188;24.160;2023-03-12T07:41:13;2.88;;;2.30;;
26530;SDS011;14201;43.188;24.160;2023-03-12T07:43:39;2.63;;;2.22;;
26530;SDS011;14201;43.188;24.160;2023-03-12T07:46:05;5.18;;;2.53;;
26530;SDS011;14201;43.188;24.160;2023-03-12T07:48:30;3.80;;;2.33;;
26530;SDS011;14201;43.188;24.160;2023-03-12T07:50:56;2.90;;;2.40;;
26530;SDS011;14201;43.188;24.160;2023-03-12T07:53:21;2.97;;;2.30;;
26530;SDS011;14201;43.188;24.160;2023-03-12T07:55:47;3.13;;;2.30;;
26530;SDS011;14201;43.188;24.160;2023-03-12T07:58:13;3.45;;;1.98;;
26530;SDS011;14201;43.188;24.160;2023-03-12T08:00:39;4.10;;;2.50;;
26530;SDS011;14201;43.188;24.160;2023-03-12T08:03:05;2.92;;;2.30;;
26530;SDS011;14201;43.188;24.160;2023-03-12T08:05:31;2.85;;;2.20;;
26530;SDS011;14201;43.188;24.160;2023-03-12T08:07:57;2.60;;;2.10;;
26530;SDS011;14201;43.188;24.160;2023-03-12T08:10:22;3.65;;;2.33;;
26530;SDS011;14201;43.188;24.160;2023-03-12T08:12:48;2.90;;;1.90;;
26530;SDS011;14201;43.188;24.160;2023-03-12T08:15:13;2.78;;;2.13;;
26530;SDS011;14201;43.188;24.160;2023-03-12T08:17:39;2.75;;;2.20;;
26530;SDS011;14201;43.188;24.160;2023-03-12T08:20:05;2.70;;;1.85;;
26530;SDS011;14201;43.188;24.160;2023-03-12T08:22:35;2.38;;;1.95;;
26530;SDS011;14201;43.188;24.160;2023-03-12T08:25:01;2.10;;;1.77;;
26530;SDS011;14201;43.188;24.160;2023-03-12T08:27:27;3.90;;;2.30;;
26530;SDS011;14201;43.188;24.160;2023-03-12T08:29:52;3.35;;;2.20;;
26530;SDS011;14201;43.188;24.160;2023-03-12T08:32:18;2.28;;;1.90;;
26530;SDS011;14201;43.188;24.160;2023-03-12T08:34:44;2.40;;;2.00;;
26530;SDS011;14201;43.188;24.160;2023-03-12T08:37:09;2.90;;;1.70;;
26530;SDS011;14201;43.188;24.160;2023-03-12T08:39:35;2.20;;;1.70;;
26530;SDS011;14201;43.188;24.160;2023-03-12T08:42:01;3.20;;;2.13;;
26530;SDS011;14201;43.188;24.160;2023-03-12T08:44:27;3.55;;;2.38;;
26530;SDS011;14201;43.188;24.160;2023-03-12T08:46:53;2.42;;;1.95;;
26530;SDS011;14201;43.188;24.160;2023-03-12T08:49:19;2.40;;;1.70;;
26530;SDS011;14201;43.188;24.160;2023-03-12T08:51:46;5.18;;;2.03;;
26530;SDS011;14201;43.188;24.160;2023-03-12T08:54:11;2.50;;;1.90;;
26530;SDS011;14201;43.188;24.160;2023-03-12T08:56:37;3.22;;;2.05;;
26530;SDS011;14201;43.188;24.160;2023-03-12T08:59:08;3.03;;;1.95;;
26530;SDS011;14201;43.188;24.160;2023-03-12T09:01:34;3.28;;;1.90;;
26530;SDS011;14201;43.188;24.160;2023-03-12T09:04:01;3.00;;;1.98;;
26530;SDS011;14201;43.188;24.160;2023-03-12T09:06:27;2.92;;;1.95;;
26530;SDS011;14201;43.188;24.160;2023-03-12T09:08:53;2.67;;;1.90;;
26530;SDS011;14201;43.188;24.160;2023-03-12T09:11:19;2.55;;;1.55;;
26530;SDS011;14201;43.188;24.160;2023-03-12T09:13:44;4.68;;;2.10;;
26530;SDS011;14201;43.188;24.160;2023-03-12T09:16:10;5.43;;;2.25;;
26530;SDS011;14201;43.188;24.160;2023-03-12T10:15:40;2.30;;;1.80;;
26530;SDS011;14201;43.188;24.160;2023-03-12T14:00:16;2.00;;;1.45;;
26530;SDS011;14201;43.188;24.160;2023-03-12T14:03:02;2.42;;;1.65;;
26530;SDS011;14201;43.188;24.160;2023-03-12T14:05:33;1.95;;;1.50;;
26530;SDS011;14201;43.188;24.160;2023-03-12T14:11:01;2.97;;;2.00;;
26530;SDS011;14201;43.188;24.160;2023-03-12T14:16:29;2.35;;;1.90;;
26530;SDS011;14201;43.188;24.160;2023-03-12T14:19:03;2.42;;;1.60;;
26530;SDS011;14201;43.188;24.160;2023-03-12T14:21:34;1.95;;;1.42;;
26530;SDS011;14201;43.188;24.160;2023-03-12T14:24:02;2.20;;;1.65;;
26530;SDS011;14201;43.188;24.160;2023-03-12T14:26:32;2.42;;;1.73;;
26530;SDS011;14201;43.188;24.160;2023-03-12T14:29:01;2.55;;;1.65;;
26530;SDS011;14201;43.188;24.160;2023-03-12T14:31:33;3.08;;;1.55;;
26530;SDS011;14201;43.188;24.160;2023-03-12T14:34:03;2.05;;;1.63;;
26530;SDS011;14201;43.188;24.160;2023-03-12T14:36:37;2.53;;;1.65;;
26530;SDS011;14201;43.188;24.160;2023-03-12T14:42:00;17.08;;;2.38;;
26530;SDS011;14201;43.188;24.160;2023-03-12T14:44:29;2.15;;;1.60;;
26530;SDS011;14201;43.188;24.160;2023-03-12T14:54:15;3.65;;;2.33;;
26530;SDS011;14201;43.188;24.160;2023-03-12T14:56:47;2.97;;;2.25;;
26530;SDS011;14201;43.188;24.160;2023-03-12T14:59:29;2.78;;;2.20;;
26530;SDS011;14201;43.188;24.160;2023-03-12T15:02:06;2.15;;;1.90;;
26530;SDS011;14201;43.188;24.160;2023-03-12T15:04:39;2.50;;;1.85;;
26530;SDS011;14201;43.188;24.160;2023-03-12T15:07:05;2.50;;;1.90;;
26530;SDS011;14201;43.188;24.160;2023-03-12T15:09:39;3.10;;;1.98;;
26530;SDS011;14201;43.188;24.160;2023-03-12T15:14:41;2.60;;;1.90;;
26530;SDS011;14201;43.188;24.160;2023-03-12T15:17:09;3.25;;;2.47;;
26530;SDS011;14201;43.188;24.160;2023-03-12T15:19:41;2.67;;;2.13;;
26530;SDS011;14201;43.188;24.160;2023-03-12T15:22:12;3.08;;;2.22;;
26530;SDS011;14201;43.188;24.160;2023-03-12T15:24:41;2.75;;;2.17;;
26530;SDS011;14201;43.188;24.160;2023-03-12T15:30:20;2.13;;;1.83;;
26530;SDS011;14201;43.188;24.160;2023-03-12T15:33:03;2.58;;;2.00;;
26530;SDS011;14201;43.188;24.160;2023-03-12T15:35:29;4.22;;;2.00;;
26530;SDS011;14201;43.188;24.160;2023-03-12T15:37:54;3.80;;;1.75;;
26530;SDS011;14201;43.188;24.160;2023-03-12T15:40:22;2.42;;;1.65;;
26530;SDS011;14201;43.188;24.160;2023-03-12T15:42:49;3.53;;;1.95;;
26530;SDS011;14201;43.188;24.160;2023-03-12T15:45:19;2.88;;;2.10;;
26530;SDS011;14201;43.188;24.160;2023-03-12T15:47:48;2.60;;;1.90;;
26530;SDS011;14201;43.188;24.160;2023-03-12T15:50:18;2.63;;;1.90;;
26530;SDS011;14201;43.188;24.160;2023-03-12T15:53:01;2.17;;;1.65;;
26530;SDS011;14201;43.188;24.160;2023-03-12T15:55:28;3.70;;;1.92;;
26530;SDS011;14201;43.188;24.160;2023-03-12T15:57:55;4.07;;;1.98;;
26530;SDS011;14201;43.188;24.160;2023-03-12T16:03:18;2.55;;;1.75;;
26530;SDS011;14201;43.188;24.160;2023-03-12T16:08:14;1.92;;;1.67;;
26530;SDS011;14201;43.188;24.160;2023-03-12T16:10:45;1.95;;;1.60;;
26530;SDS011;14201;43.188;24.160;2023-03-12T16:13:16;2.60;;;1.60;;
26530;SDS011;14201;43.188;24.160;2023-03-12T16:15:44;3.42;;;1.35;;
26530;SDS011;14201;43.188;24.160;2023-03-12T16:18:11;3.15;;;1.55;;
26530;SDS011;14201;43.188;24.160;2023-03-12T16:20:41;1.77;;;1.45;;
26530;SDS011;14201;43.188;24.160;2023-03-12T16:23:08;1.88;;;1.50;;
26530;SDS011;14201;43.188;24.160;2023-03-12T16:25:33;3.10;;;1.42;;
26530;SDS011;14201;43.188;24.160;2023-03-12T16:28:00;2.55;;;1.83;;
26530;SDS011;14201;43.188;24.160;2023-03-12T16:30:33;2.35;;;1.63;;
26530;SDS011;14201;43.188;24.160;2023-03-12T16:33:01;2.30;;;1.60;;
26530;SDS011;14201;43.188;24.160;2023-03-12T16:35:28;2.08;;;1.55;;
26530;SDS011;14201;43.188;24.160;2023-03-12T16:38:00;2.50;;;1.58;;
26530;SDS011;14201;43.188;24.160;2023-03-12T16:40:30;1.95;;;1.40;;
26530;SDS011;14201;43.188;24.160;2023-03-12T16:42:58;3.92;;;1.33;;
26530;SDS011;14201;43.188;24.160;2023-03-12T16:45:28;3.72;;;1.70;;
26530;SDS011;14201;43.188;24.160;2023-03-12T16:47:57;2.00;;;1.48;;
26530;SDS011;14201;43.188;24.160;2023-03-12T16:50:25;2.88;;;1.58;;
26530;SDS011;14201;43.188;24.160;2023-03-12T16:52:51;1.75;;;1.40;;
26530;SDS011;14201;43.188;24.160;2023-03-12T16:55:20;5.82;;;1.52;;
26530;SDS011;14201;43.188;24.160;2023-03-12T16:58:00;2.40;;;1.52;;
26530;SDS011;14201;43.188;24.160;2023-03-12T17:00:28;2.53;;;1.58;;
26530;SDS011;14201;43.188;24.160;2023-03-12T17:02:55;2.60;;;1.70;;
26530;SDS011;14201;43.188;24.160;2023-03-12T17:05:22;2.33;;;1.67;;
26530;SDS011;14201;43.188;24.160;2023-03-12T17:07:49;2.15;;;1.60;;
26530;SDS011;14201;43.188;24.160;2023-03-12T17:10:15;2.03;;;1.52;;
26530;SDS011;14201;43.188;24.160;2023-03-12T17:12:41;1.90;;;1.63;;
26530;SDS011;14201;43.188;24.160;2023-03-12T17:15:12;2.70;;;1.88;;
26530;SDS011;14201;43.188;24.160;2023-03-12T17:17:41;2.35;;;1.50;;
26530;SDS011;14201;43.188;24.160;2023-03-12T17:20:07;2.88;;;1.90;;
26530;SDS011;14201;43.188;24.160;2023-03-12T17:22:34;2.70;;;1.70;;
26530;SDS011;14201;43.188;24.160;2023-03-12T17:25:01;4.85;;;1.77;;
26530;SDS011;14201;43.188;24.160;2023-03-12T17:27:27;2.53;;;1.80;;
26530;SDS011;14201;43.188;24.160;2023-03-12T17:29:53;3.50;;;1.85;;
26530;SDS011;14201;43.188;24.160;2023-03-12T17:32:18;3.00;;;1.80;;
26530;SDS011;14201;43.188;24.160;2023-03-12T17:34:44;2.50;;;1.30;;
26530;SDS011;14201;43.188;24.160;2023-03-12T17:37:10;4.03;;;1.70;;
26530;SDS011;14201;43.188;24.160;2023-03-12T17:39:35;3.17;;;1.60;;
26530;SDS011;14201;43.188;24.160;2023-03-12T17:42:01;4.13;;;1.90;;
26530;SDS011;14201;43.188;24.160;2023-03-12T17:44:30;3.40;;;1.88;;
26530;SDS011;14201;43.188;24.160;2023-03-12T17:46:59;2.72;;;1.80;;
26530;SDS011;14201;43.188;24.160;2023-03-12T17:49:26;3.03;;;2.00;;
26530;SDS011;14201;43.188;24.160;2023-03-12T17:51:53;6.68;;;2.08;;
26530;SDS011;14201;43.188;24.160;2023-03-12T17:54:19;4.95;;;2.10;;
26530;SDS011;14201;43.188;24.160;2023-03-12T17:56:46;6.10;;;2.20;;
26530;SDS011;14201;43.188;24.160;2023-03-12T17:59:11;4.28;;;2.40;;
26530;SDS011;14201;43.188;24.160;2023-03-12T18:01:37;4.30;;;2.25;;
26530;SDS011;14201;43.188;24.160;2023-03-12T18:04:03;7.80;;;2.90;;
26530;SDS011;14201;43.188;24.160;2023-03-12T18:06:29;4.57;;;2.65;;
26530;SDS011;14201;43.188;24.160;2023-03-12T18:08:54;3.53;;;2.25;;
26530;SDS011;14201;43.188;24.160;2023-03-12T18:11:20;5.28;;;2.88;;
26530;SDS011;14201;43.188;24.160;2023-03-12T18:13:46;5.78;;;3.30;;
26530;SDS011;14201;43.188;24.160;2023-03-12T18:16:12;6.40;;;3.67;;
26530;SDS011;14201;43.188;24.160;2023-03-12T18:18:39;5.57;;;3.67;;
26530;SDS011;14201;43.188;24.160;2023-03-12T18:21:05;8.65;;;3.40;;
26530;SDS011;14201;43.188;24.160;2023-03-12T18:23:30;4.88;;;3.58;;
26530;SDS011;14201;43.188;24.160;2023-03-12T18:25:56;4.47;;;3.30;;
26530;SDS011;14201;43.188;24.160;2023-03-12T18:28:22;6.15;;;3.35;;
26530;SDS011;14201;43.188;24.160;2023-03-12T18:30:48;8.25;;;3.80;;
26530;SDS011;14201;43.188;24.160;2023-03-12T18:33:14;5.30;;;3.92;;
26530;SDS011;14201;43.188;24.160;2023-03-12T18:35:41;5.70;;;3.75;;
26530;SDS011;14201;43.188;24.160;2023-03-12T18:38:07;5.63;;;3.67;;
26530;SDS011;14201;43.188;24.160;2023-03-12T18:40:33;5.97;;;3.92;;
26530;SDS011;14201;43.188;24.160;2023-03-12T18:42:59;5.65;;;3.90;;
26530;SDS011;14201;43.188;24.160;2023-03-12T18:45:25;6.45;;;4.47;;
26530;SDS011;14201;43.188;24.160;2023-03-12T18:47:51;7.32;;;5.10;;
26530;SDS011;14201;43.188;24.160;2023-03-12T18:50:17;6.82;;;4.80;;
26530;SDS011;14201;43.188;24.160;2023-03-12T18:52:42;8.60;;;4.82;;
26530;SDS011;14201;43.188;24.160;2023-03-12T18:55:08;9.02;;;5.20;;
26530;SDS011;14201;43.188;24.160;2023-03-12T18:57:39;5.97;;;4.03;;
26530;SDS011;14201;43.188;24.160;2023-03-12T19:00:10;11.73;;;4.43;;
26530;SDS011;14201;43.188;24.160;2023-03-12T19:02:42;14.85;;;5.03;;
26530;SDS011;14201;43.188;24.160;2023-03-12T19:05:08;13.75;;;4.70;;
26530;SDS011;14201;43.188;24.160;2023-03-12T19:07:37;10.30;;;4.90;;
26530;SDS011;14201;43.188;24.160;2023-03-12T19:10:04;8.00;;;5.13;;
26530;SDS011;14201;43.188;24.160;2023-03-12T19:12:31;7.35;;;5.10;;
26530;SDS011;14201;43.188;24.160;2023-03-12T19:14:57;9.05;;;4.50;;
26530;SDS011;14201;43.188;24.160;2023-03-12T19:17:23;8.52;;;5.32;;
26530;SDS011;14201;43.188;24.160;2023-03-12T19:19:49;6.78;;;5.03;;
26530;SDS011;14201;43.188;24.160;2023-03-12T19:22:14;8.23;;;4.95;;
26530;SDS011;14201;43.188;24.160;2023-03-12T19:24:43;8.45;;;5.25;;
26530;SDS011;14201;43.188;24.160;2023-03-12T19:27:09;8.23;;;4.63;;
26530;SDS011;14201;43.188;24.160;2023-03-12T19:29:35;6.10;;;4.40;;
26530;SDS011;14201;43.188;24.160;2023-03-12T19:32:01;6.10;;;4.32;;
26530;SDS011;14201;43.188;24.160;2023-03-12T19:34:27;6.25;;;4.40;;
26530;SDS011;14201;43.188;24.160;2023-03-12T19:36:53;8.30;;;4.68;;
26530;SDS011;14201;43.188;24.160;2023-03-12T19:39:18;7.25;;;5.03;;
26530;SDS011;14201;43.188;24.160;2023-03-12T19:41:44;9.25;;;5.57;;
26530;SDS011;14201;43.188;24.160;2023-03-12T19:44:09;13.82;;;5.20;;
26530;SDS011;14201;43.188;24.160;2023-03-12T19:46:35;7.68;;;4.78;;
26530;SDS011;14201;43.188;24.160;2023-03-12T19:49:01;9.63;;;5.50;;
26530;SDS011;14201;43.188;24.160;2023-03-12T19:51:27;11.45;;;5.45;;
26530;SDS011;14201;43.188;24.160;2023-03-12T19:53:53;8.43;;;5.28;;
26530;SDS011;14201;43.188;24.160;2023-03-12T19:56:18;9.10;;;5.47;;
26530;SDS011;14201;43.188;24.160;2023-03-12T19:58:45;10.57;;;5.60;;
26530;SDS011;14201;43.188;24.160;2023-03-12T20:01:11;8.20;;;5.82;;
26530;SDS011;14201;43.188;24.160;2023-03-12T20:03:37;11.10;;;5.72;;
26530;SDS011;14201;43.188;24.160;2023-03-12T20:06:07;6.90;;;5.32;;
26530;SDS011;14201;43.188;24.160;2023-03-12T20:08:34;6.68;;;5.63;;
26530;SDS011;14201;43.188;24.160;2023-03-12T20:11:01;10.45;;;5.88;;
26530;SDS011;14201;43.188;24.160;2023-03-12T20:13:31;7.22;;;5.07;;
26530;SDS011;14201;43.188;24.160;2023-03-12T20:15:57;6.75;;;5.32;;
26530;SDS011;14201;43.188;24.160;2023-03-12T20:18:23;10.50;;;5.68;;
26530;SDS011;14201;43.188;24.160;2023-03-12T20:20:49;10.63;;;6.82;;
26530;SDS011;14201;43.188;24.160;2023-03-12T20:23:15;9.40;;;6.22;;
26530;SDS011;14201;43.188;24.160;2023-03-12T20:25:40;10.20;;;7.07;;
26530;SDS011;14201;43.188;24.160;2023-03-12T20:28:06;10.98;;;7.30;;
26530;SDS011;14201;43.188;24.160;2023-03-12T20:30:37;8.45;;;6.40;;
26530;SDS011;14201;43.188;24.160;2023-03-12T20:33:05;11.52;;;4.95;;
26530;SDS011;14201;43.188;24.160;2023-03-12T20:35:32;9.27;;;5.85;;
26530;SDS011;14201;43.188;24.160;2023-03-12T20:38:01;9.52;;;5.90;;
26530;SDS011;14201;43.188;24.160;2023-03-12T20:40:26;9.68;;;6.25;;
26530;SDS011;14201;43.188;24.160;2023-03-12T20:42:52;9.32;;;6.40;;
26530;SDS011;14201;43.188;24.160;2023-03-12T20:45:18;8.68;;;6.70;;